createdAt,value
2022-12-25T00:01:48.342Z,98718.30
2022-12-25T00:04:15.146Z,98717.11
2022-12-25T00:06:42.133Z,98719.08
2022-12-25T00:09:09.104Z,98722.98
2022-12-25T00:11:35.932Z,98719.02
2022-12-25T00:14:02.895Z,98721.21
2022-12-25T00:16:29.771Z,98719.41
2022-12-25T00:18:58.887Z,98721.33
2022-12-25T00:21:25.657Z,98728.98
2022-12-25T00:23:55.949Z,98734.11
2022-12-25T00:26:23.373Z,98735.57
2022-12-25T00:28:53.967Z,98739.42
2022-12-25T00:31:21.472Z,98748.11
2022-12-25T00:33:50.235Z,98752.07
2022-12-25T00:36:19.560Z,98755.25
2022-12-25T00:38:47.116Z,98764.04
2022-12-25T00:41:16.807Z,98767.22
2022-12-25T00:43:44.014Z,98769.94
2022-12-25T00:46:12.806Z,98767.27
2022-12-25T00:48:40.253Z,98774.16
2022-12-25T00:51:11.022Z,98776.22
2022-12-25T00:53:37.776Z,98779.54
2022-12-25T00:56:07.811Z,98782.00
2022-12-25T00:58:35.665Z,98782.58
2022-12-25T01:01:06.819Z,98790.98
2022-12-25T01:03:33.575Z,98795.14
2022-12-25T01:06:03.923Z,98799.33
2022-12-25T01:08:33.908Z,98802.38
2022-12-25T01:11:06.088Z,98805.52
2022-12-25T01:13:36.623Z,98808.09
2022-12-25T01:16:07.905Z,98813.81
2022-12-25T01:18:35.186Z,98822.96
2022-12-25T01:21:11.002Z,98823.14
2022-12-25T01:23:38.480Z,98825.98
2022-12-25T01:26:07.456Z,98827.55
2022-12-25T01:28:34.864Z,98832.59
2022-12-25T01:31:02.204Z,98828.89
2022-12-25T01:33:29.261Z,98827.68
2022-12-25T01:35:55.973Z,98828.16
2022-12-25T01:38:22.812Z,98824.75
2022-12-25T01:40:49.743Z,98825.60
2022-12-25T01:43:33.250Z,98828.02
2022-12-25T01:46:00.365Z,98831.67
2022-12-25T01:48:32.799Z,98836.09
2022-12-25T01:51:06.110Z,98839.91
2022-12-25T01:53:33.650Z,98841.30
2022-12-25T01:56:05.948Z,98845.34
2022-12-25T01:58:32.976Z,98857.80
2022-12-25T02:00:59.771Z,98860.80
2022-12-25T02:03:26.697Z,98862.90
2022-12-25T02:05:54.522Z,98868.29
2022-12-25T02:08:23.320Z,98871.33
2022-12-25T02:10:50.069Z,98869.92
2022-12-25T02:13:19.970Z,98871.48
2022-12-25T02:15:51.108Z,98870.01
2022-12-25T02:18:38.042Z,98869.69
2022-12-25T02:21:21.388Z,98871.67
2022-12-25T02:24:03.142Z,98870.91
2022-12-25T02:27:00.592Z,98864.73
2022-12-25T02:29:56.019Z,98862.94
2022-12-25T02:32:31.215Z,98860.01
2022-12-25T02:35:03.631Z,98859.53
2022-12-25T02:37:31.840Z,98863.86
2022-12-25T02:40:21.676Z,98874.33
2022-12-25T02:43:08.190Z,98874.30
2022-12-25T02:45:52.105Z,98866.77
2022-12-25T02:48:37.629Z,98866.19
2022-12-25T02:51:23.450Z,98857.88
2022-12-25T02:54:09.196Z,98858.47
2022-12-25T02:56:53.531Z,98864.39
2022-12-25T02:59:37.072Z,98861.36
2022-12-25T03:02:22.538Z,98860.67
2022-12-25T03:05:08.165Z,98863.17
2022-12-25T03:07:39.588Z,98867.23
2022-12-25T03:10:28.208Z,98856.42
2022-12-25T03:12:56.123Z,98861.73
2022-12-25T03:15:39.333Z,98867.73
2022-12-25T03:18:11.780Z,98863.69
2022-12-25T03:20:54.268Z,98860.27
2022-12-25T03:23:40.187Z,98855.43
2022-12-25T03:26:23.164Z,98864.31
2022-12-25T03:28:50.058Z,98866.28
2022-12-25T03:31:35.547Z,98869.67
2022-12-25T03:34:36.623Z,98880.16
2022-12-25T03:37:23.687Z,98880.63
2022-12-25T03:39:57.532Z,98875.82
2022-12-25T03:42:47.653Z,98873.30
2022-12-25T03:45:42.335Z,98879.67
2022-12-25T03:48:26.698Z,98884.04
2022-12-25T03:51:16.536Z,98883.73
2022-12-25T03:54:03.475Z,98883.05
2022-12-25T03:56:47.287Z,98889.09
2022-12-25T03:59:29.743Z,98888.70
2022-12-25T04:02:11.982Z,98892.77
2022-12-25T04:04:54.189Z,98896.81
2022-12-25T04:07:36.727Z,98897.60
2022-12-25T04:10:19.321Z,98900.98
2022-12-25T04:13:01.581Z,98905.83
2022-12-25T04:15:43.956Z,98907.86
2022-12-25T04:18:26.346Z,98906.80
2022-12-25T04:21:08.564Z,98910.18
2022-12-25T04:23:50.783Z,98914.05
2022-12-25T04:26:33.293Z,98919.26
2022-12-25T04:29:15.427Z,98923.34
2022-12-25T04:31:57.872Z,98924.79
2022-12-25T04:34:40.133Z,98927.10
2022-12-25T04:37:06.849Z,98933.87
2022-12-25T04:39:33.603Z,98938.86
2022-12-25T04:42:01.113Z,98937.46
2022-12-25T04:44:27.849Z,98931.61
2022-12-25T04:46:54.748Z,98932.48
2022-12-25T04:49:21.520Z,98933.27
2022-12-25T04:51:48.333Z,98936.58
2022-12-25T04:54:15.115Z,98939.46
2022-12-25T04:56:45.856Z,98940.65
2022-12-25T04:59:13.208Z,98942.47
2022-12-25T05:01:40.179Z,98945.89
2022-12-25T05:04:07.440Z,98943.33
2022-12-25T05:06:34.208Z,98939.41
2022-12-25T05:09:00.932Z,98937.64
2022-12-25T05:11:27.761Z,98933.15
2022-12-25T05:13:54.635Z,98937.09
2022-12-25T05:16:21.522Z,98943.75
2022-12-25T05:18:50.971Z,98942.14
2022-12-25T05:21:18.768Z,98940.80
2022-12-25T05:23:49.783Z,98944.10
2022-12-25T05:26:19.574Z,98944.52
2022-12-25T05:28:47.072Z,98945.71
2022-12-25T05:31:14.503Z,98951.27
2022-12-25T05:33:41.265Z,98948.04
2022-12-25T05:36:10.436Z,98944.74
2022-12-25T05:38:37.623Z,98949.27
2022-12-25T05:41:04.790Z,98947.80
2022-12-25T05:43:31.819Z,98950.09
2022-12-25T05:46:03.510Z,98964.05
2022-12-25T05:48:30.269Z,98970.53
2022-12-25T05:50:56.956Z,98972.84
2022-12-25T05:53:23.838Z,98975.80
2022-12-25T05:55:50.640Z,98983.09
2022-12-25T05:58:17.349Z,98980.23
2022-12-25T06:00:44.858Z,98978.85
2022-12-25T06:03:11.683Z,98979.14
2022-12-25T06:05:39.777Z,98978.11
2022-12-25T06:08:06.595Z,98971.25
2022-12-25T06:10:33.331Z,98969.61
2022-12-25T06:13:00.845Z,98978.59
2022-12-25T06:15:27.758Z,98986.08
2022-12-25T06:17:54.521Z,98994.67
2022-12-25T06:20:21.447Z,99001.45
2022-12-25T06:22:48.159Z,99006.47
2022-12-25T06:25:15.162Z,99003.79
2022-12-25T06:27:41.913Z,99009.86
2022-12-25T06:30:09.323Z,99014.42
2022-12-25T06:32:36.189Z,99017.48
2022-12-25T06:35:03.307Z,99016.11
2022-12-25T06:37:31.615Z,99015.77
2022-12-25T06:39:58.522Z,99018.34
2022-12-25T06:42:25.838Z,99030.89
2022-12-25T06:44:53.315Z,99041.38
2022-12-25T06:47:20.020Z,99048.17
2022-12-25T06:49:46.848Z,99054.19
2022-12-25T06:52:13.563Z,99056.94
2022-12-25T06:54:40.273Z,99053.83
2022-12-25T06:57:07.055Z,99056.35
2022-12-25T06:59:33.748Z,99063.94
2022-12-25T07:02:00.717Z,99075.13
2022-12-25T07:04:40.655Z,99079.71
2022-12-25T07:07:09.645Z,99082.96
2022-12-25T07:09:39.179Z,99084.68
2022-12-25T07:12:17.415Z,99091.88
2022-12-25T07:14:45.485Z,99097.55
2022-12-25T07:17:12.245Z,99097.91
2022-12-25T07:19:44.733Z,99111.02
2022-12-25T07:22:12.290Z,99122.84
2022-12-25T07:24:39.200Z,99129.63
2022-12-25T07:27:06.593Z,99136.92
2022-12-25T07:29:33.305Z,99143.33
2022-12-25T07:32:00.245Z,99140.20
2022-12-25T07:34:27.030Z,99141.33
2022-12-25T07:36:55.135Z,99142.48
2022-12-25T07:39:22.072Z,99139.62
2022-12-25T07:41:48.782Z,99142.89
2022-12-25T07:44:16.065Z,99141.81
2022-12-25T07:46:43.094Z,99147.66
2022-12-25T07:49:11.109Z,99142.80
2022-12-25T07:51:38.225Z,99139.11
2022-12-25T07:54:05.085Z,99137.92
2022-12-25T07:56:31.889Z,99130.55
2022-12-25T07:58:58.679Z,99133.06
2022-12-25T08:01:27.170Z,99128.90
2022-12-25T08:03:57.374Z,99127.98
2022-12-25T08:06:29.806Z,99129.04
2022-12-25T08:09:01.820Z,99129.54
2022-12-25T08:11:29.344Z,99128.46
2022-12-25T08:13:56.031Z,99132.42
2022-12-25T08:16:22.941Z,99127.09
2022-12-25T08:18:49.840Z,99128.73
2022-12-25T08:21:16.619Z,99129.09
2022-12-25T08:23:45.629Z,99130.90
2022-12-25T08:26:15.965Z,99133.99
2022-12-25T08:28:42.841Z,99132.20
2022-12-25T08:31:27.772Z,99127.91
2022-12-25T08:33:57.241Z,99127.42
2022-12-25T08:36:24.493Z,99122.52
2022-12-25T08:38:53.480Z,99121.41
2022-12-25T08:41:23.299Z,99112.88
2022-12-25T08:43:50.039Z,99103.34
2022-12-25T08:46:16.793Z,99099.02
2022-12-25T08:48:45.913Z,99102.90
2022-12-25T08:51:16.229Z,99101.99
2022-12-25T08:53:44.734Z,99105.62
2022-12-25T08:56:11.804Z,99114.59
2022-12-25T08:58:38.872Z,99132.64
2022-12-25T09:01:06.535Z,99137.48
2022-12-25T09:03:33.877Z,99140.79
2022-12-25T09:06:04.072Z,99146.73
2022-12-25T09:08:31.093Z,99146.52
2022-12-25T09:11:03.131Z,99147.96
2022-12-25T09:13:30.220Z,99146.41
2022-12-25T09:15:56.961Z,99143.83
2022-12-25T09:18:23.783Z,99148.64
2022-12-25T09:21:03.317Z,99149.88
2022-12-25T09:23:30.912Z,99148.95
2022-12-25T09:25:59.980Z,99152.17
2022-12-25T09:28:26.894Z,99148.13
2022-12-25T09:30:54.215Z,99151.54
2022-12-25T09:33:22.204Z,99155.80
2022-12-25T09:35:58.326Z,99157.66
2022-12-25T09:38:25.836Z,99157.66
2022-12-25T09:41:02.955Z,99154.70
2022-12-25T09:43:33.999Z,99154.77
2022-12-25T09:46:04.269Z,99162.04
2022-12-25T09:48:35.572Z,99167.77
2022-12-25T09:51:10.125Z,99172.25
2022-12-25T09:53:40.463Z,99174.16
2022-12-25T09:56:10.675Z,99175.02
2022-12-25T09:58:37.480Z,99181.36
2022-12-25T10:01:28.936Z,99177.95
2022-12-25T10:04:26.956Z,99169.95
2022-12-25T10:07:23.695Z,99167.48
2022-12-25T10:10:05.774Z,99168.30
2022-12-25T10:12:32.554Z,99169.02
2022-12-25T10:14:59.345Z,99172.48
2022-12-25T10:17:31.004Z,99164.19
2022-12-25T10:20:13.228Z,99156.95
2022-12-25T10:22:44.926Z,99158.20
2022-12-25T10:25:17.843Z,99151.41
2022-12-25T10:27:45.393Z,99149.13
2022-12-25T10:30:18.564Z,99149.05
2022-12-25T10:32:46.574Z,99143.55
2022-12-25T10:35:15.422Z,99145.75
2022-12-25T10:37:44.504Z,99143.66
2022-12-25T10:40:27.438Z,99147.75
2022-12-25T10:43:04.459Z,99142.23
2022-12-25T10:45:31.371Z,99135.01
2022-12-25T10:48:07.446Z,99132.17
2022-12-25T10:50:42.560Z,99125.09
2022-12-25T10:53:18.643Z,99120.95
2022-12-25T10:56:02.254Z,99126.69
2022-12-25T10:58:30.564Z,99124.92
2022-12-25T11:01:03.017Z,99125.41
2022-12-25T11:03:35.956Z,99120.58
2022-12-25T11:06:03.465Z,99110.80
2022-12-25T11:08:33.111Z,99109.18
2022-12-25T11:11:06.396Z,99099.80
2022-12-25T11:13:39.277Z,99103.13
2022-12-25T11:16:10.643Z,99097.84
2022-12-25T11:18:46.520Z,99095.84
2022-12-25T11:21:19.015Z,99092.67
2022-12-25T11:23:48.827Z,99089.58
2022-12-25T11:26:17.835Z,99086.56
2022-12-25T11:28:46.274Z,99079.48
2022-12-25T11:31:15.944Z,99082.13
2022-12-25T11:33:46.931Z,99083.87
2022-12-25T11:36:21.613Z,99088.42
2022-12-25T11:38:48.391Z,99087.44
2022-12-25T11:41:20.755Z,99088.49
2022-12-25T11:43:55.557Z,99088.38
2022-12-25T11:49:25.900Z,99090.77
2022-12-25T11:51:57.151Z,99085.98
2022-12-25T11:54:32.453Z,99089.36
2022-12-25T11:57:03.436Z,99085.73
2022-12-25T11:59:38.633Z,99081.95
2022-12-25T12:02:24.259Z,99078.28
2022-12-25T12:05:06.660Z,99073.78
2022-12-25T12:07:35.448Z,99073.75
2022-12-25T12:10:16.675Z,99074.23
2022-12-25T12:12:58.642Z,99082.89
2022-12-25T12:15:33.557Z,99077.50
2022-12-25T12:18:10.170Z,99073.34
2022-12-25T12:20:37.475Z,99074.37
2022-12-25T12:23:15.215Z,99074.73
2022-12-25T12:25:45.458Z,99072.68
2022-12-25T12:28:20.913Z,99066.48
2022-12-25T12:30:58.671Z,99061.88
2022-12-25T12:33:29.630Z,99059.61
2022-12-25T12:35:57.092Z,99058.59
2022-12-25T12:38:24.942Z,99056.20
2022-12-25T12:40:51.650Z,99054.17
2022-12-25T12:43:26.212Z,99057.65
2022-12-25T12:46:00.999Z,99058.21
2022-12-25T12:48:37.235Z,99063.21
2022-12-25T12:51:07.367Z,99063.88
2022-12-25T12:53:35.124Z,99060.52
2022-12-25T12:56:11.976Z,99053.07
2022-12-25T12:58:45.170Z,99057.58
2022-12-25T13:01:21.466Z,99059.80
2022-12-25T13:04:03.543Z,99059.09
2022-12-25T13:06:41.487Z,99059.86
2022-12-25T13:09:11.690Z,99060.50
2022-12-25T13:11:41.629Z,99062.90
2022-12-25T13:14:19.245Z,99061.60
2022-12-25T13:16:48.951Z,99057.55
2022-12-25T13:19:19.404Z,99058.56
2022-12-25T13:22:03.354Z,99059.70
2022-12-25T13:24:32.820Z,99065.77
2022-12-25T13:27:00.715Z,99068.71
2022-12-25T13:29:38.069Z,99068.33
2022-12-25T13:32:07.493Z,99073.41
2022-12-25T13:34:40.505Z,99079.09
2022-12-25T13:37:10.196Z,99073.02
2022-12-25T13:39:44.625Z,99065.68
2022-12-25T13:42:16.818Z,99063.55
2022-12-25T13:44:47.433Z,99066.81
2022-12-25T13:47:19.667Z,99057.86
2022-12-25T13:49:47.413Z,99060.16
2022-12-25T13:52:18.872Z,99070.48
2022-12-25T13:54:55.799Z,99076.63
2022-12-25T13:57:28.121Z,99071.38
2022-12-25T13:59:55.561Z,99062.86
2022-12-25T14:02:28.833Z,99059.90
2022-12-25T14:04:55.930Z,99064.39
2022-12-25T14:07:24.984Z,99064.85
2022-12-25T14:09:59.734Z,99057.48
2022-12-25T14:12:29.188Z,99056.92
2022-12-25T14:14:58.264Z,99051.97
2022-12-25T14:17:25.928Z,99055.07
2022-12-25T14:20:05.626Z,99058.62
2022-12-25T14:22:36.036Z,99056.53
2022-12-25T14:25:02.845Z,99065.91
2022-12-25T14:27:31.015Z,99071.41
2022-12-25T14:30:00.594Z,99080.91
2022-12-25T14:32:31.892Z,99076.52
2022-12-25T14:35:03.734Z,99079.23
2022-12-25T14:37:32.872Z,99076.96
2022-12-25T14:40:06.570Z,99074.13
2022-12-25T14:42:35.263Z,99065.51
2022-12-25T14:45:04.027Z,99055.14
2022-12-25T14:47:32.528Z,99050.98
2022-12-25T14:49:59.995Z,99038.60
2022-12-25T14:52:30.562Z,99036.52
2022-12-25T14:55:02.985Z,99036.05
2022-12-25T14:57:33.899Z,99033.88
2022-12-25T15:00:06.704Z,99050.23
2022-12-25T15:02:40.831Z,99063.49
2022-12-25T15:05:25.137Z,99073.40
2022-12-25T15:08:04.468Z,99078.23
2022-12-25T15:10:59.738Z,99075.61
2022-12-25T15:13:18.918Z,99084.42
2022-12-25T15:15:53.557Z,99087.95
2022-12-25T15:18:24.559Z,99090.39
2022-12-25T15:20:52.977Z,99089.79
2022-12-25T15:23:20.899Z,99096.32
2022-12-25T15:25:48.644Z,99095.40
2022-12-25T15:28:15.499Z,99092.08
2022-12-25T15:30:42.473Z,99082.43
2022-12-25T15:33:14.484Z,99088.11
2022-12-25T15:35:44.143Z,99086.05
2022-12-25T15:38:12.336Z,99080.03
2022-12-25T15:40:40.128Z,99075.42
2022-12-25T15:43:14.531Z,99070.59
2022-12-25T15:45:53.665Z,99058.42
2022-12-25T15:48:20.448Z,99058.39
2022-12-25T15:50:47.403Z,99058.59
2022-12-25T15:53:14.229Z,99055.02
2022-12-25T15:55:41.277Z,99047.79
2022-12-25T15:58:13.176Z,99043.41
2022-12-25T16:00:39.899Z,99040.79
2022-12-25T16:03:06.799Z,99037.73
2022-12-25T16:05:33.731Z,99032.50
2022-12-25T16:08:00.504Z,99031.38
2022-12-25T16:10:27.390Z,99032.63
2022-12-25T16:12:54.134Z,99032.30
2022-12-25T16:15:20.900Z,99021.09
2022-12-25T16:17:47.698Z,99027.17
2022-12-25T16:20:15.036Z,99025.61
2022-12-25T16:22:41.766Z,99030.20
2022-12-25T16:25:14.991Z,99035.94
2022-12-25T16:27:41.806Z,99029.13
2022-12-25T16:30:09.665Z,99033.11
2022-12-25T16:32:36.554Z,99043.59
2022-12-25T16:35:03.593Z,99045.35
2022-12-25T16:37:30.567Z,99048.11
2022-12-25T16:39:57.431Z,99043.38
2022-12-25T16:42:24.274Z,99038.08
2022-12-25T16:44:51.142Z,99036.55
2022-12-25T16:47:17.931Z,99037.91
2022-12-25T16:49:44.728Z,99028.46
2022-12-25T16:52:11.528Z,99027.12
2022-12-25T16:54:38.200Z,99026.80
2022-12-25T16:57:04.966Z,99025.39
2022-12-25T16:59:33.017Z,99023.21
2022-12-25T17:01:59.818Z,99018.78
2022-12-25T17:04:27.884Z,99020.32
2022-12-25T17:06:54.640Z,99021.35
2022-12-25T17:09:21.499Z,99021.15
2022-12-25T17:11:48.301Z,99016.14
2022-12-25T17:14:16.231Z,99010.41
2022-12-25T17:16:43.039Z,99017.03
2022-12-25T17:19:18.373Z,99011.94
2022-12-25T17:21:45.841Z,99011.45
2022-12-25T17:24:12.886Z,99005.73
2022-12-25T17:26:42.092Z,98999.81
2022-12-25T17:29:08.853Z,98994.91
2022-12-25T17:31:36.118Z,98989.16
2022-12-25T17:34:04.234Z,98984.14
2022-12-25T17:36:31.906Z,98968.00
2022-12-25T17:39:00.929Z,98963.39
2022-12-25T17:41:28.023Z,98967.26
2022-12-25T17:43:55.048Z,98970.29
2022-12-25T17:46:24.984Z,98964.14
2022-12-25T17:48:54.304Z,98962.77
2022-12-25T17:51:23.377Z,98955.23
2022-12-25T17:53:55.481Z,98957.17
2022-12-25T17:56:39.297Z,98959.27
2022-12-25T17:59:08.447Z,98959.29
2022-12-25T18:01:53.039Z,98961.58
2022-12-25T18:04:35.704Z,98965.38
2022-12-25T18:07:03.424Z,98969.48
2022-12-25T18:09:32.201Z,98960.86
2022-12-25T18:12:00.011Z,98961.89
2022-12-25T18:14:26.918Z,98962.80
2022-12-25T18:16:53.943Z,98959.07
2022-12-25T18:19:20.801Z,98962.65
2022-12-25T18:21:47.688Z,98960.72
2022-12-25T18:24:15.768Z,98958.44
2022-12-25T18:26:42.583Z,98960.98
2022-12-25T18:29:26.077Z,98963.15
2022-12-25T18:31:52.869Z,98963.35
2022-12-25T18:34:36.771Z,98968.70
2022-12-25T18:37:03.782Z,98964.40
2022-12-25T18:39:32.011Z,98957.83
2022-12-25T18:42:14.984Z,98952.21
2022-12-25T18:44:41.848Z,98951.75
2022-12-25T18:47:08.620Z,98961.09
2022-12-25T18:49:36.892Z,98968.20
2022-12-25T18:52:48.824Z,98970.02
2022-12-25T18:54:52.479Z,98965.39
2022-12-25T18:57:19.530Z,98955.44
2022-12-25T18:59:47.471Z,98946.70
2022-12-25T19:02:15.359Z,98937.29
2022-12-25T19:04:50.689Z,98923.92
2022-12-25T19:07:17.451Z,98920.88
2022-12-25T19:09:44.793Z,98927.70
2022-12-25T19:12:27.254Z,98929.25
2022-12-25T19:14:54.025Z,98937.68
2022-12-25T19:17:22.552Z,98937.77
2022-12-25T19:19:51.055Z,98936.88
2022-12-25T19:22:17.792Z,98936.23
2022-12-25T19:25:00.153Z,98930.21
2022-12-25T19:27:27.212Z,98929.46
2022-12-25T19:29:54.714Z,98931.88
2022-12-25T19:32:24.236Z,98926.05
2022-12-25T19:35:07.072Z,98922.68
2022-12-25T19:37:34.824Z,98919.59
2022-12-25T19:40:01.874Z,98917.63
2022-12-25T19:42:28.630Z,98913.31
2022-12-25T19:44:55.941Z,98910.92
2022-12-25T19:47:22.830Z,98902.74
2022-12-25T19:49:53.227Z,98898.16
2022-12-25T19:52:20.596Z,98888.59
2022-12-25T19:54:51.663Z,98888.30
2022-12-25T19:57:18.699Z,98887.85
2022-12-25T19:59:45.426Z,98888.11
2022-12-25T20:02:12.653Z,98897.77
2022-12-25T20:04:39.535Z,98892.74
2022-12-25T20:07:06.470Z,98887.39
2022-12-25T20:09:33.313Z,98887.30
2022-12-25T20:12:00.110Z,98880.99
2022-12-25T20:14:26.852Z,98870.46
2022-12-25T20:16:53.969Z,98861.19
2022-12-25T20:19:21.541Z,98859.11
2022-12-25T20:21:48.530Z,98860.41
2022-12-25T20:24:16.086Z,98857.98
2022-12-25T20:26:46.442Z,98861.16
2022-12-25T20:29:15.072Z,98856.42
2022-12-25T20:31:42.134Z,98852.25
2022-12-25T20:34:12.063Z,98855.23
2022-12-25T20:36:39.278Z,98855.89
2022-12-25T20:39:09.826Z,98851.96
2022-12-25T20:41:38.049Z,98849.09
2022-12-25T20:44:06.589Z,98847.50
2022-12-25T20:46:33.666Z,98842.98
2022-12-25T20:49:04.317Z,98835.23
2022-12-25T20:51:31.064Z,98830.10
2022-12-25T20:53:58.140Z,98830.82
2022-12-25T20:56:26.433Z,98829.45
2022-12-25T20:58:55.174Z,98820.16
2022-12-25T21:01:22.588Z,98814.36
2022-12-25T21:03:51.192Z,98813.79
2022-12-25T21:06:18.027Z,98815.98
2022-12-25T21:08:44.816Z,98816.94
2022-12-25T21:11:13.088Z,98809.06
2022-12-25T21:13:42.435Z,98807.18
2022-12-25T21:16:13.899Z,98811.30
2022-12-25T21:18:40.745Z,98814.70
2022-12-25T21:21:10.570Z,98820.23
2022-12-25T21:23:39.180Z,98814.61
2022-12-25T21:26:19.470Z,98796.34
2022-12-25T21:28:48.300Z,98781.59
2022-12-25T21:31:15.244Z,98766.40
2022-12-25T21:33:57.599Z,98759.67
2022-12-25T21:36:34.080Z,98760.98
2022-12-25T21:39:04.128Z,98769.02
2022-12-25T21:41:32.713Z,98773.45
2022-12-25T21:44:00.118Z,98787.20
2022-12-25T21:46:27.840Z,98787.27
2022-12-25T21:48:55.124Z,98781.00
2022-12-25T21:51:40.326Z,98780.66
2022-12-25T21:54:07.493Z,98783.20
2022-12-25T21:56:43.039Z,98771.63
2022-12-25T21:59:12.584Z,98765.91
2022-12-25T22:01:39.410Z,98760.80
2022-12-25T22:04:08.342Z,98763.17
2022-12-25T22:06:50.778Z,98764.84
2022-12-25T22:09:18.415Z,98763.04
2022-12-25T22:12:00.530Z,98751.55
2022-12-25T22:14:52.715Z,98760.06
2022-12-25T22:17:40.944Z,98759.35
2022-12-25T22:20:10.835Z,98756.04
2022-12-25T22:22:37.777Z,98758.06
2022-12-25T22:25:05.732Z,98764.10
2022-12-25T22:27:35.812Z,98754.63
2022-12-25T22:30:02.577Z,98747.03
2022-12-25T22:32:29.417Z,98742.73
2022-12-25T22:34:56.210Z,98742.17
2022-12-25T22:37:27.184Z,98738.13
2022-12-25T22:39:53.911Z,98729.33
2022-12-25T22:42:20.989Z,98720.23
2022-12-25T22:44:47.787Z,98724.13
2022-12-25T22:47:15.368Z,98723.52
2022-12-25T22:49:42.137Z,98722.95
2022-12-25T22:52:09.901Z,98716.78
2022-12-25T22:54:37.256Z,98726.38
2022-12-25T22:57:04.601Z,98722.92
2022-12-25T22:59:32.909Z,98712.53
2022-12-25T23:02:00.751Z,98703.38
2022-12-25T23:04:28.326Z,98702.64
2022-12-25T23:06:55.229Z,98698.48
2022-12-25T23:09:27.501Z,98694.00
2022-12-25T23:11:55.880Z,98705.37
2022-12-25T23:14:39.064Z,98717.92
2022-12-25T23:17:28.631Z,98715.11
2022-12-25T23:20:11.343Z,98704.89
2022-12-25T23:22:53.726Z,98706.67
2022-12-25T23:25:35.946Z,98709.60
2022-12-25T23:28:02.640Z,98712.35
2022-12-25T23:30:29.313Z,98718.59
2022-12-25T23:32:56.006Z,98716.80
2022-12-25T23:35:22.704Z,98712.61
2022-12-25T23:37:53.051Z,98704.77
2022-12-25T23:40:20.040Z,98700.34
2022-12-25T23:42:46.904Z,98701.35
2022-12-25T23:45:13.881Z,98704.86
2022-12-25T23:47:40.628Z,98697.04
2022-12-25T23:50:07.592Z,98691.91
2022-12-25T23:52:34.290Z,98682.89
2022-12-25T23:55:01.122Z,98670.80
2022-12-25T23:57:28.894Z,98666.05
2022-12-25T23:59:55.604Z,98656.64
